Sombrero Key, FL current weather conditions

sailwx.info

Wind from 020 at 7 knots gusting 11

Air temperature 22.4° C
Dewpoint 19.4° C

Last reported at 2020-Jan-25 04:30 UTC.
Time now 2020-Jan-25 05:06 UTC

Location: N 24°38' W 081°07'.
View on Google Maps.

See reports from other nearby stations

  
Tides and Currents Weather Stations Pressure Air Temp Water Temp Dewpoint Dewpoint Depression Visibility Wind Speed Wind Dir Waves Ship Positions
date/time (UTC)wind fromknots sea level pressurealtimeterstation pressurevisibilityair tempwater tempwave heightnotes
2020-Jan-25 04:30 020 7 gusting 11 22.4
2020-Jan-25 04:20 040 6 gusting 8 22.8
2020-Jan-25 04:10 030 6 gusting 7 22.7
2020-Jan-25 04:00 040 6 gusting 6 22.9
2020-Jan-25 03:50 040 5 gusting 6 22.8
2020-Jan-25 03:40 040 4 gusting 5 22.7
2020-Jan-25 03:30 040 5 gusting 5 22.5
2020-Jan-25 03:20 040 4 gusting 5 22.5
2020-Jan-25 03:10 030 2 gusting 4 22.3
2020-Jan-25 03:00 010 0 gusting 1 22.2
2020-Jan-25 02:50 22.1
2020-Jan-25 02:40 140 1 gusting 4 22.1
2020-Jan-25 02:30 150 5 gusting 6 22.0
2020-Jan-25 02:20 150 6 gusting 8 22.0
2020-Jan-25 02:10 160 7 gusting 9 21.9
2020-Jan-25 02:00 170 8 gusting 11 22.0
2020-Jan-25 01:50 170 9 gusting 11 22.1
2020-Jan-25 01:40 190 9 gusting 12 22.1
2020-Jan-25 01:30 190 9 gusting 12 22.0
2020-Jan-25 01:20 200 11 gusting 12 22.1
2020-Jan-25 01:10 200 11 gusting 13 22.0
2020-Jan-25 01:00 210 9 gusting 12 21.8
2020-Jan-25 00:50 210 11 gusting 13 21.7
2020-Jan-25 00:40 220 12 gusting 13 21.6
2020-Jan-25 00:30 230 9 gusting 13 21.6
2020-Jan-25 00:20 240 6 gusting 9 21.5
2020-Jan-25 00:10 250 6 gusting 8 21.3
2020-Jan-25 00:00 240 7 gusting 9 21.2
2020-Jan-24 23:50 240 7 gusting 11 21.2
2020-Jan-24 23:40 230 8 gusting 11 21.2
2020-Jan-24 23:30 230 8 gusting 12 21.3
2020-Jan-24 23:20 230 8 gusting 11 21.5
2020-Jan-24 23:10 250 5 gusting 8 21.7
2020-Jan-24 23:00 280 4 gusting 5 21.7
2020-Jan-24 22:50 290 1 gusting 4 21.6
2020-Jan-24 22:40 300 2 gusting 5 21.6
2020-Jan-24 22:30 310 4 gusting 5 21.5
2020-Jan-24 22:20 310 4 gusting 5 21.5
2020-Jan-24 22:10 300 2 gusting 5 21.5
2020-Jan-24 22:00 300 1 gusting 5 21.5
2020-Jan-24 21:50 290 2 gusting 4 10.821.426.0
2020-Jan-24 21:40 280 2 gusting 5 21.4
2020-Jan-24 21:30 270 1 gusting 4 21.3
2020-Jan-24 21:20 280 1 gusting 2 21.1
2020-Jan-24 21:10 290 1 gusting 4 20.9
2020-Jan-24 21:00 280 1 gusting 4 20.8
2020-Jan-24 20:50 280 1 gusting 4 20.7
2020-Jan-24 20:40 320 1 gusting 2 20.7
2020-Jan-24 20:30 330 2 gusting 4 20.8
2020-Jan-24 20:20 340 4 gusting 5 20.8
2020-Jan-24 20:10 330 5 gusting 6 20.7
2020-Jan-24 20:00 340 4 gusting 5 20.6
2020-Jan-24 19:50 330 5 gusting 6 20.8
2020-Jan-24 19:40 330 5 gusting 6 21.0
2020-Jan-24 19:30 300 4 gusting 6 21.1
2020-Jan-24 19:20 290 2 gusting 4 21.0
2020-Jan-24 19:10 310 5 gusting 6 20.9
2020-Jan-24 19:00 320 6 gusting 6 21.0
2020-Jan-24 18:50 320 5 gusting 6 20.7
2020-Jan-24 18:40 330 5 gusting 6 20.8
2020-Jan-24 18:30 340 5 gusting 6 20.8
2020-Jan-24 18:20 340 6 gusting 6 21.0
2020-Jan-24 18:10 360 5 gusting 6 20.8
2020-Jan-24 18:00 010 5 gusting 6 20.7
2020-Jan-24 17:50 010 5 gusting 6 20.7
2020-Jan-24 17:40 020 6 gusting 6 20.5
2020-Jan-24 17:30 020 7 gusting 9 20.5
2020-Jan-24 17:20 010 8 gusting 9 20.4
2020-Jan-24 17:10 360 8 gusting 9 20.3
2020-Jan-24 17:00 360 7 gusting 9 20.2
2020-Jan-24 16:50 360 5 gusting 7 20.2
2020-Jan-24 16:40 350 5 gusting 6 20.2
2020-Jan-24 16:30 010 6 gusting 8 20.0
2020-Jan-24 16:20 360 7 gusting 11 20.0
2020-Jan-24 16:10 340 7 gusting 9 20.1
2020-Jan-24 16:00 340 8 gusting 11 20.0
2020-Jan-24 15:50 350 8 gusting 11 20.2
2020-Jan-24 15:40 340 7 gusting 11 20.4
2020-Jan-24 15:30 350 6 gusting 12 20.3
2020-Jan-24 15:20 330 6 gusting 8 20.2
2020-Jan-24 15:10 340 6 gusting 9 20.2
2020-Jan-24 15:00 350 6 gusting 9 20.3
2020-Jan-24 14:50 060 5 gusting 6 20.3
2020-Jan-24 14:40 010 4 gusting 6 20.0
2020-Jan-24 14:30 350 5 gusting 12 19.7
2020-Jan-24 14:20 350 8 gusting 12 19.5
2020-Jan-24 14:10 350 9 gusting 12 19.4
2020-Jan-24 14:00 340 7 gusting 11 19.5
2020-Jan-24 13:50 350 8 gusting 11 19.5
2020-Jan-24 13:40 360 6 gusting 9 19.7
2020-Jan-24 13:30 340 6 gusting 7 19.8
2020-Jan-24 13:20 350 6 gusting 7 19.8
2020-Jan-24 13:10 340 7 gusting 9 19.9
2020-Jan-24 13:00 330 4 gusting 7 20.1
2020-Jan-24 12:50 330 2 gusting 6 20.2
2020-Jan-24 12:40 320 5 gusting 12 20.3
2020-Jan-24 12:30 320 7 gusting 12 20.3
2020-Jan-24 12:20 330 8 gusting 11 20.5
2020-Jan-24 12:10 330 7 gusting 9 20.9
2020-Jan-24 12:00 340 6 gusting 7 21.0
2020-Jan-24 11:50 330 5 gusting 6 21.0
2020-Jan-24 11:40 320 5 gusting 6 20.9
2020-Jan-24 11:30 330 6 gusting 6 20.7
2020-Jan-24 11:20 330 6 gusting 7 20.6
2020-Jan-24 11:10 340 6 gusting 7 20.5
2020-Jan-24 11:00 340 6 gusting 7 20.6
2020-Jan-24 10:50 360 6 gusting 9 20.5
2020-Jan-24 10:40 010 7 gusting 9 20.4
2020-Jan-24 10:30 010 6 gusting 11 20.8
2020-Jan-24 10:20 330 2 gusting 4 20.8
2020-Jan-24 10:10 360 4 gusting 6 20.6
2020-Jan-24 10:00 010 6 gusting 8 20.5
2020-Jan-24 09:50 360 7 gusting 11 20.4
2020-Jan-24 09:40 350 7 gusting 9 20.4
2020-Jan-24 09:30 330 9 gusting 12 20.1
2020-Jan-24 09:20 340 7 gusting 11 20.1
2020-Jan-24 09:10 330 8 gusting 12 20.1
2020-Jan-24 09:00 320 8 gusting 12 20.1
2020-Jan-24 08:50 340 6 gusting 12 20.4
2020-Jan-24 08:40 340 6 gusting 8 20.4
2020-Jan-24 08:30 310 5 gusting 6 20.3
2020-Jan-24 08:20 300 6 gusting 7 20.3
2020-Jan-24 08:10 300 6 gusting 8 20.4
2020-Jan-24 08:00 290 5 gusting 6 20.5
2020-Jan-24 07:50 270 4 gusting 6 20.4
2020-Jan-24 07:40 280 6 gusting 7 20.3
2020-Jan-24 07:30 300 6 gusting 7 20.4
2020-Jan-24 07:20 280 5 gusting 6 20.5
2020-Jan-24 07:10 280 6 gusting 8 20.4
2020-Jan-24 07:00 290 7 gusting 9 20.3
2020-Jan-24 06:50 290 7 gusting 9 20.2
2020-Jan-24 06:40 300 7 gusting 9 20.3
2020-Jan-24 06:30 290 6 gusting 7 20.4
2020-Jan-24 06:20 290 6 gusting 7 20.3
2020-Jan-24 06:10 310 6 gusting 8 20.2
2020-Jan-24 06:00 310 5 gusting 6 20.0
2020-Jan-24 05:50 330 5 gusting 9 20.0
2020-Jan-24 05:40 340 6 gusting 9 20.1
2020-Jan-24 05:30 320 6 gusting 9 20.1
2020-Jan-24 05:20 330 6 gusting 9 19.9
2020-Jan-24 05:10 320 6 gusting 7 19.8
2020-Jan-24 05:00 360 6 gusting 6 20.3
2020-Jan-24 04:50 080 2 gusting 5 20.6
2020-Jan-24 04:40 090 6 gusting 11 20.9
2020-Jan-24 04:30 090 4 gusting 9 21.2
2020-Jan-24 04:20 140 6 gusting 11 21.7
2020-Jan-24 04:10 050 7 gusting 12 21.5
2020-Jan-24 04:00 030 9 gusting 11 21.3
2020-Jan-24 03:50 030 11 gusting 13 21.3
2020-Jan-24 03:40 020 12 gusting 14 21.3
2020-Jan-24 03:30 020 12 gusting 14 21.1
2020-Jan-24 03:20 020 11 gusting 13 21.0
2020-Jan-24 03:10 020 11 gusting 13 20.9
2020-Jan-24 03:00 030 12 gusting 14 20.9
2020-Jan-24 02:50 030 13 gusting 14 20.9
2020-Jan-24 02:40 030 13 gusting 17 21.5
2020-Jan-24 02:30 040 12 gusting 13 21.7
2020-Jan-24 02:20 040 12 gusting 13 21.4
2020-Jan-24 02:10 040 11 gusting 14 21.6
2020-Jan-24 02:00 040 11 gusting 13 21.4
2020-Jan-24 01:50 030 12 gusting 14 21.5
2020-Jan-24 01:40 030 12 gusting 13 21.5
2020-Jan-24 01:30 030 11 gusting 13 21.4
2020-Jan-24 01:20 010 9 gusting 12 21.1
2020-Jan-24 01:10 020 9 gusting 13 21.1
2020-Jan-24 01:00 010 8 gusting 12 21.2
2020-Jan-24 00:50 020 8 gusting 11 21.2
2020-Jan-24 00:40 010 8 gusting 12 20.9
2020-Jan-24 00:30 020 8 gusting 11 21.0
2020-Jan-24 00:20 020 8 gusting 11 21.0
2020-Jan-24 00:10 010 7 gusting 9 21.0
2020-Jan-24 00:00 360 7 gusting 11 21.2
2020-Jan-23 23:50 020 8 gusting 11 21.5
2020-Jan-23 23:40 030 7 gusting 9 21.6
2020-Jan-23 23:30 030 7 gusting 9 21.7
2020-Jan-23 23:20 030 7 gusting 8 21.9
2020-Jan-23 23:10 050 6 gusting 8 21.8
2020-Jan-23 23:00 040 7 gusting 9 21.8
2020-Jan-23 22:50 040 7 gusting 9 21.8
2020-Jan-23 22:40 040 7 gusting 9 21.8
2020-Jan-23 22:30 030 7 gusting 9 21.8
2020-Jan-23 22:20 030 7 gusting 9 21.8
2020-Jan-23 22:10 040 8 gusting 11 21.8
2020-Jan-23 22:00 030 8 gusting 11 21.8
2020-Jan-23 21:50 030 8 gusting 11 21.8
2020-Jan-23 21:40 030 8 gusting 9 21.8
2020-Jan-23 21:30 030 8 gusting 11 21.6
2020-Jan-23 21:20 020 9 gusting 12 21.6
2020-Jan-23 21:10 010 7 gusting 11 21.4
2020-Jan-23 21:00 020 7 gusting 11 21.2
2020-Jan-23 20:50 360 7 gusting 9 20.9
2020-Jan-23 20:40 360 7 gusting 11 20.6
2020-Jan-23 20:30 360 7 gusting 11 20.7
2020-Jan-23 20:20 360 8 gusting 11 20.6
2020-Jan-23 20:10 360 7 gusting 12 20.5
2020-Jan-23 20:00 360 7 gusting 9 20.5
2020-Jan-23 19:50 020 7 gusting 9 20.7
2020-Jan-23 19:40 020 8 gusting 11 20.5
2020-Jan-23 19:30 030 8 gusting 9 20.3
2020-Jan-23 19:20 030 7 gusting 9 20.2
2020-Jan-23 19:10 030 7 gusting 9 20.2
2020-Jan-23 19:00 020 7 gusting 11 20.0
2020-Jan-23 18:50 030 8 gusting 11 19.7
2020-Jan-23 18:40 030 8 gusting 11 19.4
2020-Jan-23 18:30 030 8 gusting 11 19.2
2020-Jan-23 18:20 030 8 gusting 11 18.9
2020-Jan-23 18:10 030 9 gusting 12 18.7
2020-Jan-23 18:00 030 9 gusting 12 18.7
2020-Jan-23 17:50 020 9 gusting 11 18.6
2020-Jan-23 17:40 020 8 gusting 12 18.4
2020-Jan-23 17:30 010 8 gusting 11 18.1
2020-Jan-23 17:20 360 8 gusting 12 18.1
2020-Jan-23 17:10 010 8 gusting 11 17.9
2020-Jan-23 17:00 360 8 gusting 11 17.8
2020-Jan-23 16:50 350 8 gusting 11 17.7
2020-Jan-23 16:40 350 7 gusting 11 17.8
2020-Jan-23 16:30 340 6 gusting 8 17.7
2020-Jan-23 16:20 340 6 gusting 8 17.7
2020-Jan-23 16:10 350 6 gusting 8 17.5
2020-Jan-23 16:00 350 6 gusting 8 17.3
2020-Jan-23 15:50 360 7 gusting 9 17.0
2020-Jan-23 15:40 020 9 gusting 12 16.7
2020-Jan-23 15:30 020 6 gusting 8 16.6
2020-Jan-23 15:20 010 6 gusting 9 16.3
2020-Jan-23 15:10 020 7 gusting 11 16.1
2020-Jan-23 15:00 020 9 gusting 13 16.0
2020-Jan-23 14:50 010 8 gusting 12 16.0
2020-Jan-23 14:40 360 7 gusting 11 15.8
2020-Jan-23 14:30 360 6 gusting 9 15.7
2020-Jan-23 14:20 010 6 gusting 11 15.7
2020-Jan-23 14:10 010 5 gusting 7 15.6
2020-Jan-23 14:00 020 5 gusting 7 15.6
2020-Jan-23 13:50 010 6 gusting 8 15.6
2020-Jan-23 13:40 350 6 gusting 9 15.6
2020-Jan-23 13:30 010 6 gusting 8 15.4
2020-Jan-23 13:20 360 7 gusting 11 15.5
2020-Jan-23 13:10 010 6 gusting 12 15.5
2020-Jan-23 13:00 360 5 gusting 7 15.6
2020-Jan-23 12:50 360 5 gusting 6 15.5
2020-Jan-23 12:40 010 6 gusting 9 15.4
2020-Jan-23 12:30 010 6 gusting 9 15.4
2020-Jan-23 12:20 010 6 gusting 8 15.4
2020-Jan-23 12:10 010 5 gusting 8 15.4
2020-Jan-23 12:00 010 5 gusting 6 15.4
2020-Jan-23 11:50 010 6 gusting 8 15.4
2020-Jan-23 11:40 020 7 gusting 12 15.4
2020-Jan-23 11:30 020 8 gusting 12 15.3
2020-Jan-23 11:20 030 9 gusting 13 15.3
2020-Jan-23 11:10 020 12 gusting 13 15.1
2020-Jan-23 11:00 010 11 gusting 14 15.1
2020-Jan-23 10:50 010 11 gusting 13 15.0
2020-Jan-23 10:40 010 11 gusting 14 15.0
2020-Jan-23 10:30 360 11 gusting 13 15.1
2020-Jan-23 10:20 010 11 gusting 13 15.0
2020-Jan-23 10:10 360 11 gusting 13 15.0
2020-Jan-23 10:00 010 12 gusting 15 14.8
2020-Jan-23 09:50 360 13 gusting 17 14.8
2020-Jan-23 09:40 360 12 gusting 14 14.8
2020-Jan-23 09:30 360 12 gusting 15 14.7
2020-Jan-23 09:20 360 13 gusting 17 14.7
2020-Jan-23 09:10 360 12 gusting 14 14.7
2020-Jan-23 09:00 360 12 gusting 14 15.1
2020-Jan-23 08:50 360 13 gusting 14 15.0
2020-Jan-23 08:40 360 12 gusting 13 15.3
2020-Jan-23 08:30 360 11 gusting 13 15.2
2020-Jan-23 08:20 010 12 gusting 14 15.3
2020-Jan-23 08:10 010 12 gusting 14 15.3
2020-Jan-23 08:00 010 12 gusting 13 15.2
2020-Jan-23 07:50 010 12 gusting 13 15.2
2020-Jan-23 07:40 020 12 gusting 15 15.2
2020-Jan-23 07:30 010 12 gusting 14 15.2
2020-Jan-23 07:20 010 9 gusting 12 15.2
2020-Jan-23 07:10 010 12 gusting 13 15.2
2020-Jan-23 07:00 010 12 gusting 14 15.3
2020-Jan-23 06:50 010 12 gusting 14 15.2
2020-Jan-23 06:40 010 13 gusting 14 15.2
2020-Jan-23 06:30 010 13 gusting 15 15.3
2020-Jan-23 06:20 010 13 gusting 17 15.3
2020-Jan-23 06:10 020 13 gusting 17 15.3
2020-Jan-23 06:00 010 13 gusting 17 15.3
2020-Jan-23 05:50 020 14 gusting 18 15.2
2020-Jan-23 05:40 020 14 gusting 19 15.3
2020-Jan-23 05:30 010 14 gusting 18 15.2
2020-Jan-23 05:20 010 13 gusting 17 15.4
2020-Jan-23 05:10 010 13 gusting 15 15.3
2020-Jan-23 05:00 010 13 gusting 17 15.4